Time;durP1;ratioP1;P1;durP2;ratioP2;P2;SDS_P1;SDS_P2;PMS_P1;PMS_P2;Temp;Humidity;BMP_temperature;BMP_pressure;BME280_temperature;BME280_humidity;BME280_pressure;Samples;Min_cycle;Max_cycle;Signal;HPM_P1;HPM_P2
2023/02/12 00:00:06;;;;;;;;;;;;;;;;;;1036920;28;19936;-79
2023/02/12 00:00:36;;;;;;;;;;;;;;;;;;1033065;28;19916;-80
2023/02/12 00:01:07;;;;;;;;;;;;;;;;;;1033035;28;19906;-80
2023/02/12 00:01:38;;;;;;;;;;;;;;;;;;1034194;28;19906;-80
2023/02/12 00:02:09;;;;;;;;;;;;;;;;;;1037019;28;19912;-80
2023/02/12 00:02:40;;;;;;;;;;;;;;;;;;1033201;28;19906;-81
2023/02/12 00:03:11;;;;;;;;;;;;;;;;;;1032936;28;19986;-79
2023/02/12 00:03:42;;;;;;;;;;;;;;;;;;1037505;28;19906;-81
2023/02/12 00:04:13;;;;;;;;;;;;;;;;;;1041397;28;20459;-82
2023/02/12 00:04:44;;;;;;;;;;;;;;;;;;1041511;28;20277;-81
2023/02/12 00:05:15;;;;;;;;;;;;;;;;;;1041431;28;20039;-81
2023/02/12 00:05:46;;;;;;;;;;;;;;;;;;1046160;28;19909;-81
2023/02/12 00:06:17;;;;;;;;;;;;;;;;;;1045703;28;19908;-82
2023/02/12 00:06:48;;;;;;;;;;;;;;;;;;1041221;28;20411;-80
2023/02/12 00:07:18;;;;;;;;;;;;;;;;;;1037351;28;19906;-79
2023/02/12 00:07:49;;;;;;;;;;;;;;;;;;1032997;28;20396;-80
2023/02/12 00:08:20;;;;;;;;;;;;;;;;;;1031747;28;19909;-81
2023/02/12 00:08:51;;;;;;;;;;;;;;;;;;1033495;28;19926;-81
2023/02/12 00:09:22;;;;;;;;;;;;;;;;;;1033548;28;19913;-81
2023/02/12 00:09:53;;;;;;;;;;;;;;;;;;1037282;28;19906;-81
2023/02/12 00:10:24;;;;;;;;;;;;;;;;;;1037501;28;20316;-81
2023/02/12 00:10:55;;;;;;;;;;;;;;;;;;1032898;28;19910;-81
2023/02/12 00:11:25;;;;;;;;;;;;;;;;;;1032988;28;19992;-81
2023/02/12 00:11:56;;;;;;;;;;;;;;;;;;1035713;28;19909;-80
2023/02/12 00:12:27;;;;;;;;;;;;;;;;;;1037624;28;19997;-81
2023/02/12 00:12:58;;;;;;;;;;;;;;;;;;1041222;28;19916;-81
2023/02/12 00:13:29;;;;;;;;;;;;;;;;;;1045584;28;20387;-81
2023/02/12 00:14:00;;;;;;;;;;;;;;;;;;1037349;28;20162;-81
2023/02/12 00:14:31;;;;;;;;;;;;;;;;;;1037368;28;20353;-82
2023/02/12 00:15:01;;;;;;;;;;;;;;;;;;1037130;28;19944;-81
2023/02/12 00:15:33;;;;;;;;;;;;;;;;;;1037644;28;20233;-81
2023/02/12 00:16:04;;;;;;;;;;;;;;;;;;1037423;28;19917;-81
2023/02/12 00:16:35;;;;;;;;;;;;;;;;;;1038060;28;20314;-81
2023/02/12 00:17:06;;;;;;;;;;;;;;;;;;1037111;28;19916;-81
2023/02/12 00:17:37;;;;;;;;;;;;;;;;;;1037830;28;19912;-81
2023/02/12 00:18:07;;;;;;;;;;;;;;;;;;1041829;28;20471;-81
2023/02/12 00:18:38;;;;;;;;;;;;;;;;;;1039762;28;19913;-81
2023/02/12 00:19:09;;;;;;;;;;;;;;;;;;1041961;28;19974;-81
2023/02/12 00:19:40;;;;;;;;;;;;;;;;;;1037757;28;19905;-81
2023/02/12 00:20:11;;;;;;;;;;;;;;;;;;1036860;28;19913;-81
2023/02/12 00:20:42;;;;;;;;;;;;;;;;;;1037025;28;19905;-81
2023/02/12 00:21:13;;;;;;;;;;;;;;;;;;1037745;28;19961;-81
2023/02/12 00:21:44;;;;;;;;;;;;;;;;;;1037785;28;19932;-81
2023/02/12 00:22:15;;;;;;;;;;;;;;;;;;1041162;28;19976;-81
2023/02/12 00:22:46;;;;;;;;;;;;;;;;;;1042053;28;20386;-81
2023/02/12 00:23:17;;;;;;;;;;;;;;;;;;1045730;28;19931;-81
2023/02/12 00:23:48;;;;;;;;;;;;;;;;;;1041451;28;19924;-81
2023/02/12 00:24:18;;;;;;;;;;;;;;;;;;1041431;28;20280;-81
2023/02/12 00:24:49;;;;;;;;;;;;;;;;;;1037761;28;19905;-81
2023/02/12 00:25:21;;;;;;;;;;;;;;;;;;1037400;28;19959;-80
2023/02/12 00:25:52;;;;;;;;;;;;;;;;;;1034797;28;19906;-81
2023/02/12 00:26:23;;;;;;;;;;;;;;;;;;1033620;28;19913;-81
2023/02/12 00:26:54;;;;;;;;;;;;;;;;;;1029542;28;20329;-80
2023/02/12 00:27:25;;;;;;;;;;;;;;;;;;1030216;28;20354;-81
2023/02/12 00:27:56;;;;;;;;;;;;;;;;;;1029311;28;20366;-81
2023/02/12 00:28:27;;;;;;;;;;;;;;;;;;1034333;28;19918;-80
2023/02/12 00:28:58;;;;;;;;;;;;;;;;;;1041422;28;20277;-81
2023/02/12 00:29:29;;;;;;;;;;;;;;;;;;1041326;28;19925;-81
2023/02/12 00:29:59;;;;;;;;;;;;;;;;;;1037309;28;19960;-81
2023/02/12 00:30:30;;;;;;;;;;;;;;;;;;1037624;28;19996;-81
2023/02/12 00:31:01;;;;;;;;;;;;;;;;;;1037137;28;20262;-81
2023/02/12 00:31:32;;;;;;;;;;;;;;;;;;1037414;28;19914;-80
2023/02/12 00:32:03;;;;;;;;;;;;;;;;;;1037426;28;19936;-81
2023/02/12 00:32:36;;;;;;;;;;;;;;;;;;1037783;28;19940;-80
2023/02/12 00:33:07;;;;;;;;;;;;;;;;;;1041637;28;19936;-81
2023/02/12 00:33:37;;;;;;;;;;;;;;;;;;1042459;28;19959;-80
2023/02/12 00:34:08;;;;;;;;;;;;;;;;;;1041761;28;20366;-80
2023/02/12 00:34:39;;;;;;;;;;;;;;;;;;1037746;28;19910;-80
2023/02/12 00:35:10;;;;;;;;;;;;;;;;;;1037718;28;19975;-81
2023/02/12 00:35:41;;;;;;;;;;;;;;;;;;1034004;28;20328;-81
2023/02/12 00:36:12;;;;;;;;;;;;;;;;;;1037651;28;20007;-81
2023/02/12 00:36:43;;;;;;;;;;;;;;;;;;1037804;28;19932;-82
2023/02/12 00:37:13;;;;;;;;;;;;;;;;;;1037570;28;19913;-82
2023/02/12 00:37:44;;;;;;;;;;;;;;;;;;1041415;28;19933;-81
2023/02/12 00:38:15;;;;;;;;;;;;;;;;;;1037743;28;19910;-82
2023/02/12 00:38:46;;;;;;;;;;;;;;;;;;1037703;28;19932;-82
2023/02/12 00:39:17;;;;;;;;;;;;;;;;;;1037798;28;19972;-82
2023/02/12 00:39:48;;;;;;;;;;;;;;;;;;1042297;28;19917;-81
2023/02/12 00:40:19;;;;;;;;;;;;;;;;;;1044776;28;20028;-82
2023/02/12 00:40:50;;;;;;;;;;;;;;;;;;1046117;28;19909;-81
2023/02/12 00:41:21;;;;;;;;;;;;;;;;;;1045608;28;19951;-82
2023/02/12 00:41:51;;;;;;;;;;;;;;;;;;1046173;28;20337;-81
2023/02/12 00:42:22;;;;;;;;;;;;;;;;;;1044572;28;19913;-81
2023/02/12 00:42:53;;;;;;;;;;;;;;;;;;1041790;28;20424;-81
2023/02/12 00:43:24;;;;;;;;;;;;;;;;;;1041978;28;19920;-82
2023/02/12 00:43:55;;;;;;;;;;;;;;;;;;1041546;28;19973;-83
2023/02/12 00:44:26;;;;;;;;;;;;;;;;;;1042581;28;19913;-81
2023/02/12 00:44:57;;;;;;;;;;;;;;;;;;1046140;28;20406;-81
2023/02/12 00:45:28;;;;;;;;;;;;;;;;;;1046053;28;19916;-81
2023/02/12 00:45:58;;;;;;;;;;;;;;;;;;1046069;28;19982;-81
2023/02/12 00:46:29;;;;;;;;;;;;;;;;;;1045704;28;19908;-82
2023/02/12 00:47:03;;;;;;;;;;;;;;;;;;1046045;28;19911;-81
2023/02/12 00:47:34;;;;;;;;;;;;;;;;;;1043116;28;20556;-80
2023/02/12 00:48:05;;;;;;;;;;;;;;;;;;1044720;28;20450;-80
2023/02/12 00:48:36;;;;;;;;;;;;;;;;;;1046250;28;19905;-82
2023/02/12 00:49:06;;;;;;;;;;;;;;;;;;1045910;28;19928;-80
2023/02/12 00:49:37;;;;;;;;;;;;;;;;;;1045933;28;19904;-80
2023/02/12 00:50:08;;;;;;;;;;;;;;;;;;1046096;28;19990;-81
2023/02/12 00:50:42;;;;;;;;;;;;;;;;;;1046237;28;19927;-81
2023/02/12 00:51:13;;;;;;;;;;;;;;;;;;1042128;28;19909;-81
2023/02/12 00:51:44;;;;;;;;;;;;;;;;;;1045943;28;20378;-82
2023/02/12 00:52:15;;;;;;;;;;;;;;;;;;1045718;28;20376;-80
2023/02/12 00:52:46;;;;;;;;;;;;;;;;;;1046174;28;19988;-80
2023/02/12 00:53:16;;;;;;;;;;;;;;;;;;1048869;28;20267;-80
2023/02/12 00:53:47;;;;;;;;;;;;;;;;;;1045562;28;19912;-81
2023/02/12 00:54:18;;;;;;;;;;;;;;;;;;1045874;28;20049;-81
2023/02/12 00:54:49;;;;;;;;;;;;;;;;;;1043817;28;19906;-82
2023/02/12 00:55:20;;;;;;;;;;;;;;;;;;1041481;28;20012;-81
2023/02/12 00:55:51;;;;;;;;;;;;;;;;;;1041755;28;20379;-80
2023/02/12 00:56:22;;;;;;;;;;;;;;;;;;1041794;28;19906;-81
2023/02/12 00:56:54;;;;;;;;;;;;;;;;;;1041880;28;19913;-81
2023/02/12 00:57:25;;;;;;;;;;;;;;;;;;1041176;28;19909;-81
2023/02/12 00:57:56;;;;;;;;;;;;;;;;;;1037843;28;20000;-81
2023/02/12 00:58:27;;;;;;;;;;;;;;;;;;1037446;28;19909;-81
2023/02/12 00:58:58;;;;;;;;;;;;;;;;;;1037577;28;20564;-80
2023/02/12 00:59:28;;;;;;;;;;;;;;;;;;1037745;28;19940;-81
2023/02/12 00:59:59;;;;;;;;;;;;;;;;;;1043084;28;20295;-80
2023/02/12 01:00:30;;;;;;;;;;;;;;;;;;1042808;28;19996;-81
2023/02/12 01:01:01;;;;;;;;;;;;;;;;;;1041726;28;20322;-80
2023/02/12 01:01:32;;;;;;;;;;;;;;;;;;1043212;28;19936;-81
2023/02/12 01:02:03;;;;;;;;;;;;;;;;;;1045761;28;19905;-80
2023/02/12 01:02:34;;;;;;;;;;;;;;;;;;1045831;28;20019;-81
2023/02/12 01:03:05;;;;;;;;;;;;;;;;;;1042006;28;19905;-80
2023/02/12 01:03:36;;;;;;;;;;;;;;;;;;1046074;28;19951;-81
2023/02/12 01:04:07;;;;;;;;;;;;;;;;;;1045993;28;19912;-80
2023/02/12 01:04:38;;;;;;;;;;;;;;;;;;1045665;28;19959;-81
2023/02/12 01:05:08;;;;;;;;;;;;;;;;;;1046007;28;19912;-79
2023/02/12 01:05:39;;;;;;;;;;;;;;;;;;1050378;28;19911;-80
2023/02/12 01:06:10;;;;;;;;;;;;;;;;;;1045976;28;20054;-79
2023/02/12 01:06:41;;;;;;;;;;;;;;;;;;1046054;28;19920;-80
2023/02/12 01:07:12;;;;;;;;;;;;;;;;;;1045735;28;19909;-80
2023/02/12 01:07:43;;;;;;;;;;;;;;;;;;1045800;28;19959;-80
2023/02/12 01:08:14;;;;;;;;;;;;;;;;;;1045633;28;19917;-80
2023/02/12 01:08:45;;;;;;;;;;;;;;;;;;1046033;28;19909;-80
2023/02/12 01:09:15;;;;;;;;;;;;;;;;;;1046225;28;19920;-81
2023/02/12 01:09:46;;;;;;;;;;;;;;;;;;1050542;28;20366;-81
2023/02/12 01:10:17;;;;;;;;;;;;;;;;;;1045655;28;19940;-80
2023/02/12 01:10:48;;;;;;;;;;;;;;;;;;1045547;28;19913;-82
2023/02/12 01:11:19;;;;;;;;;;;;;;;;;;1045682;28;20366;-81
2023/02/12 01:11:50;;;;;;;;;;;;;;;;;;1046195;28;19913;-81
2023/02/12 01:12:21;;;;;;;;;;;;;;;;;;1050346;28;19935;-81
2023/02/12 01:12:52;;;;;;;;;;;;;;;;;;1050397;28;20457;-80
2023/02/12 01:13:24;;;;;;;;;;;;;;;;;;1050273;28;20003;-82
2023/02/12 01:13:55;;;;;;;;;;;;;;;;;;1050413;28;19912;-81
2023/02/12 01:14:27;;;;;;;;;;;;;;;;;;1050349;28;19912;-79
2023/02/12 01:14:58;;;;;;;;;;;;;;;;;;1050145;28;19909;-80
2023/02/12 01:15:28;;;;;;;;;;;;;;;;;;1049802;28;19995;-81
2023/02/12 01:15:59;;;;;;;;;;;;;;;;;;1046084;28;20359;-81
2023/02/12 01:16:32;;;;;;;;;;;;;;;;;;1046185;28;19934;-82
2023/02/12 01:17:03;;;;;;;;;;;;;;;;;;1041620;28;20315;-81
2023/02/12 01:17:34;;;;;;;;;;;;;;;;;;1041623;28;20466;-81
2023/02/12 01:18:05;;;;;;;;;;;;;;;;;;1041598;28;19909;-81
2023/02/12 01:18:35;;;;;;;;;;;;;;;;;;1041690;28;20360;-82
2023/02/12 01:19:06;;;;;;;;;;;;;;;;;;1041617;28;19920;-81
2023/02/12 01:19:37;;;;;;;;;;;;;;;;;;1041534;28;19911;-82
2023/02/12 01:20:08;;;;;;;;;;;;;;;;;;1042347;28;19909;-82
2023/02/12 01:20:39;;;;;;;;;;;;;;;;;;1049778;28;19956;-82
2023/02/12 01:21:10;;;;;;;;;;;;;;;;;;1050216;28;19912;-82
2023/02/12 01:21:41;;;;;;;;;;;;;;;;;;1045835;28;20477;-82
2023/02/12 01:22:12;;;;;;;;;;;;;;;;;;1045446;28;20452;-82
2023/02/12 01:22:42;;;;;;;;;;;;;;;;;;1045642;28;19947;-81
2023/02/12 01:23:13;;;;;;;;;;;;;;;;;;1045423;28;20376;-81
2023/02/12 01:23:44;;;;;;;;;;;;;;;;;;1043423;28;20451;-82
2023/02/12 01:24:15;;;;;;;;;;;;;;;;;;1040026;28;19940;-81
2023/02/12 01:24:46;;;;;;;;;;;;;;;;;;1040609;28;20435;-81
2023/02/12 01:25:17;;;;;;;;;;;;;;;;;;1041571;28;19921;-82
2023/02/12 01:25:48;;;;;;;;;;;;;;;;;;1041915;28;20264;-82
2023/02/12 01:26:19;;;;;;;;;;;;;;;;;;1045912;28;19940;-81
2023/02/12 01:26:49;;;;;;;;;;;;;;;;;;1041750;28;19932;-82
2023/02/12 01:27:20;;;;;;;;;;;;;;;;;;1041708;28;19913;-80
2023/02/12 01:27:51;;;;;;;;;;;;;;;;;;1041390;28;19913;-81
2023/02/12 01:28:22;;;;;;;;;;;;;;;;;;1041492;28;19923;-81
2023/02/12 01:28:53;;;;;;;;;;;;;;;;;;1040694;28;20014;-82
2023/02/12 01:29:24;;;;;;;;;;;;;;;;;;1040241;28;19917;-81
2023/02/12 01:29:55;;;;;;;;;;;;;;;;;;1041372;28;19913;-81
2023/02/12 01:30:26;;;;;;;;;;;;;;;;;;1041593;28;19981;-81
2023/02/12 01:30:56;;;;;;;;;;;;;;;;;;1044830;28;19909;-80
2023/02/12 01:31:27;;;;;;;;;;;;;;;;;;1041507;28;19999;-81
2023/02/12 01:31:58;;;;;;;;;;;;;;;;;;1045056;28;19909;-81
2023/02/12 01:32:29;;;;;;;;;;;;;;;;;;1042425;28;19955;-80
2023/02/12 01:33:00;;;;;;;;;;;;;;;;;;1037342;28;19917;-81
2023/02/12 01:33:31;;;;;;;;;;;;;;;;;;1037201;28;19980;-81
2023/02/12 01:34:02;;;;;;;;;;;;;;;;;;1037197;28;19914;-81
2023/02/12 01:34:33;;;;;;;;;;;;;;;;;;1037466;28;19918;-81
2023/02/12 01:35:03;;;;;;;;;;;;;;;;;;1037498;28;19919;-81
2023/02/12 01:35:35;;;;;;;;;;;;;;;;;;1041609;28;19920;-81
2023/02/12 01:36:05;;;;;;;;;;;;;;;;;;1037155;28;19956;-81
2023/02/12 01:36:36;;;;;;;;;;;;;;;;;;1037478;28;19909;-81
2023/02/12 01:37:07;;;;;;;;;;;;;;;;;;1036889;28;19913;-80
2023/02/12 01:37:38;;;;;;;;;;;;;;;;;;1037333;28;20407;-81
2023/02/12 01:38:09;;;;;;;;;;;;;;;;;;1037422;28;19948;-80
2023/02/12 01:38:40;;;;;;;;;;;;;;;;;;1041603;28;19951;-81
2023/02/12 01:39:11;;;;;;;;;;;;;;;;;;1041217;28;20312;-81
2023/02/12 01:39:42;;;;;;;;;;;;;;;;;;1037057;28;19910;-81
2023/02/12 01:40:12;;;;;;;;;;;;;;;;;;1037004;28;19916;-81
2023/02/12 01:40:43;;;;;;;;;;;;;;;;;;1037354;28;20431;-81
2023/02/12 01:41:14;;;;;;;;;;;;;;;;;;1034708;28;19909;-81
2023/02/12 01:41:45;;;;;;;;;;;;;;;;;;1033117;28;20363;-81
2023/02/12 01:42:17;;;;;;;;;;;;;;;;;;1033301;28;19916;-81
2023/02/12 01:42:48;;;;;;;;;;;;;;;;;;1037383;28;20012;-80
2023/02/12 01:43:19;;;;;;;;;;;;;;;;;;1036806;28;19909;-80
2023/02/12 01:43:50;;;;;;;;;;;;;;;;;;1036899;28;19945;-80
2023/02/12 01:44:21;;;;;;;;;;;;;;;;;;1036807;28;19924;-79
2023/02/12 01:44:52;;;;;;;;;;;;;;;;;;1037232;28;20219;-79
2023/02/12 01:45:23;;;;;;;;;;;;;;;;;;1041245;28;19988;-79
2023/02/12 01:45:53;;;;;;;;;;;;;;;;;;1037311;28;19909;-80
2023/02/12 01:46:24;;;;;;;;;;;;;;;;;;1037027;28;19920;-80
2023/02/12 01:46:55;;;;;;;;;;;;;;;;;;1037244;28;20000;-81
2023/02/12 01:47:26;;;;;;;;;;;;;;;;;;1037080;28;19909;-80
2023/02/12 01:47:57;;;;;;;;;;;;;;;;;;1037148;28;20398;-82
2023/02/12 01:48:28;;;;;;;;;;;;;;;;;;1032999;28;20266;-81
2023/02/12 01:48:59;;;;;;;;;;;;;;;;;;1033086;28;19910;-81
2023/02/12 01:49:30;;;;;;;;;;;;;;;;;;1032792;28;19917;-81
2023/02/12 01:50:01;;;;;;;;;;;;;;;;;;1032963;28;20009;-81
2023/02/12 01:50:31;;;;;;;;;;;;;;;;;;1032537;28;19925;-80
2023/02/12 01:51:02;;;;;;;;;;;;;;;;;;1033161;28;19949;-80
2023/02/12 01:51:33;;;;;;;;;;;;;;;;;;1036985;28;19949;-81
2023/02/12 01:52:04;;;;;;;;;;;;;;;;;;1037422;28;19906;-81
2023/02/12 01:52:35;;;;;;;;;;;;;;;;;;1037032;28;19941;-80
2023/02/12 01:53:06;;;;;;;;;;;;;;;;;;1037198;28;19910;-80
2023/02/12 01:53:37;;;;;;;;;;;;;;;;;;1036891;28;20371;-80
2023/02/12 01:54:08;;;;;;;;;;;;;;;;;;1033292;28;19906;-81
2023/02/12 01:54:38;;;;;;;;;;;;;;;;;;1037041;28;19909;-80
2023/02/12 01:55:09;;;;;;;;;;;;;;;;;;1037240;28;19906;-81
2023/02/12 01:55:40;;;;;;;;;;;;;;;;;;1037308;28;19928;-80
2023/02/12 01:56:11;;;;;;;;;;;;;;;;;;1036966;28;19925;-80
2023/02/12 01:56:42;;;;;;;;;;;;;;;;;;1040938;28;19906;-81
2023/02/12 01:57:13;;;;;;;;;;;;;;;;;;1037013;28;20361;-80
2023/02/12 01:57:44;;;;;;;;;;;;;;;;;;1037431;28;19913;-80
2023/02/12 01:58:15;;;;;;;;;;;;;;;;;;1038418;28;19909;-80
2023/02/12 01:58:46;;;;;;;;;;;;;;;;;;1036720;28;19906;-79
2023/02/12 01:59:16;;;;;;;;;;;;;;;;;;1036809;28;19999;-80
2023/02/12 01:59:49;;;;;;;;;;;;;;;;;;1037093;28;19905;-80
2023/02/12 02:00:20;;;;;;;;;;;;;;;;;;1036661;28;19909;-80
2023/02/12 02:00:50;;;;;;;;;;;;;;;;;;1037687;28;19905;-80
2023/02/12 02:01:21;;;;;;;;;;;;;;;;;;1041131;28;20317;-80
2023/02/12 02:01:52;;;;;;;;;;;;;;;;;;1040893;28;19916;-80
2023/02/12 02:02:23;;;;;;;;;;;;;;;;;;1036194;28;19933;-80
2023/02/12 02:02:54;;;;;;;;;;;;;;;;;;1036422;28;20293;-81
2023/02/12 02:03:25;;;;;;;;;;;;;;;;;;1036290;28;19976;-80
2023/02/12 02:03:56;;;;;;;;;;;;;;;;;;1036531;28;19909;-81
2023/02/12 02:04:26;;;;;;;;;;;;;;;;;;1036325;28;19916;-80
2023/02/12 02:04:57;;;;;;;;;;;;;;;;;;1040566;28;19972;-80
2023/02/12 02:05:28;;;;;;;;;;;;;;;;;;1038800;28;19909;-79
2023/02/12 02:05:59;;;;;;;;;;;;;;;;;;1036203;28;19909;-80
2023/02/12 02:06:30;;;;;;;;;;;;;;;;;;1036310;28;20444;-80
2023/02/12 02:07:01;;;;;;;;;;;;;;;;;;1036408;28;19922;-81
2023/02/12 02:07:32;;;;;;;;;;;;;;;;;;1036283;28;19936;-80
2023/02/12 02:08:03;;;;;;;;;;;;;;;;;;1036390;28;19941;-81
2023/02/12 02:08:34;;;;;;;;;;;;;;;;;;1036330;28;19917;-81
2023/02/12 02:09:05;;;;;;;;;;;;;;;;;;1036532;28;19913;-81
2023/02/12 02:09:36;;;;;;;;;;;;;;;;;;1036469;28;19913;-81
2023/02/12 02:10:07;;;;;;;;;;;;;;;;;;1036504;28;19914;-82
2023/02/12 02:10:37;;;;;;;;;;;;;;;;;;1036384;28;20400;-81
2023/02/12 02:14:33;;;;;;;;;;;;;;;;;;1041060;28;19916;-81
2023/02/12 02:15:04;;;;;;;;;;;;;;;;;;1040216;28;19909;-82
2023/02/12 02:15:35;;;;;;;;;;;;;;;;;;1040517;28;19972;-81
2023/02/12 02:16:06;;;;;;;;;;;;;;;;;;1040531;28;20007;-81
2023/02/12 02:16:37;;;;;;;;;;;;;;;;;;1040685;28;19920;-81
2023/02/12 02:17:08;;;;;;;;;;;;;;;;;;1040309;28;20003;-81
2023/02/12 02:17:39;;;;;;;;;;;;;;;;;;1040583;28;19913;-80
2023/02/12 02:18:09;;;;;;;;;;;;;;;;;;1036287;28;19936;-81
2023/02/12 02:18:40;;;;;;;;;;;;;;;;;;1036429;28;20008;-81
2023/02/12 02:19:11;;;;;;;;;;;;;;;;;;1036447;28;19914;-81
2023/02/12 02:19:42;;;;;;;;;;;;;;;;;;1036416;28;20503;-81
2023/02/12 02:20:13;;;;;;;;;;;;;;;;;;1036339;28;19914;-81
2023/02/12 02:20:44;;;;;;;;;;;;;;;;;;1036053;28;20000;-81
2023/02/12 02:21:15;;;;;;;;;;;;;;;;;;1035859;28;19940;-81
2023/02/12 02:21:45;;;;;;;;;;;;;;;;;;1032360;28;20008;-81
2023/02/12 02:22:16;;;;;;;;;;;;;;;;;;1032174;28;19913;-81
2023/02/12 02:22:47;;;;;;;;;;;;;;;;;;1036422;28;19914;-81
2023/02/12 02:23:18;;;;;;;;;;;;;;;;;;1032424;28;20029;-82
2023/02/12 02:23:49;;;;;;;;;;;;;;;;;;1032701;28;20456;-81
2023/02/12 02:24:20;;;;;;;;;;;;;;;;;;1036434;28;19913;-81
2023/02/12 02:24:51;;;;;;;;;;;;;;;;;;1032705;28;20465;-82
2023/02/12 02:25:22;;;;;;;;;;;;;;;;;;1037210;28;19913;-81
2023/02/12 02:25:52;;;;;;;;;;;;;;;;;;1037254;28;19921;-81
2023/02/12 02:26:23;;;;;;;;;;;;;;;;;;1037448;28;19914;-81
2023/02/12 02:26:54;;;;;;;;;;;;;;;;;;1041505;28;20423;-81
2023/02/12 02:27:25;;;;;;;;;;;;;;;;;;1041073;28;19949;-81
2023/02/12 02:27:56;;;;;;;;;;;;;;;;;;1037315;28;19910;-81
2023/02/12 02:28:27;;;;;;;;;;;;;;;;;;1036926;28;20420;-81
2023/02/12 02:28:58;;;;;;;;;;;;;;;;;;1036708;28;19981;-81
2023/02/12 02:29:29;;;;;;;;;;;;;;;;;;1036845;28;20304;-81
2023/02/12 02:30:00;;;;;;;;;;;;;;;;;;1036812;28;19913;-81
2023/02/12 02:30:30;;;;;;;;;;;;;;;;;;1036650;28;19984;-80
2023/02/12 02:31:01;;;;;;;;;;;;;;;;;;1036790;28;19913;-81
2023/02/12 02:31:32;;;;;;;;;;;;;;;;;;1037043;28;19921;-81
2023/02/12 02:32:03;;;;;;;;;;;;;;;;;;1036601;28;20012;-81
2023/02/12 02:32:34;;;;;;;;;;;;;;;;;;1036369;28;19940;-81
2023/02/12 02:33:05;;;;;;;;;;;;;;;;;;1032976;28;19910;-81
2023/02/12 02:33:36;;;;;;;;;;;;;;;;;;1036984;28;19916;-81
2023/02/12 02:34:06;;;;;;;;;;;;;;;;;;1036539;28;20004;-81
2023/02/12 02:34:37;;;;;;;;;;;;;;;;;;1032902;28;19914;-80
2023/02/12 02:35:08;;;;;;;;;;;;;;;;;;1032607;28;19937;-81
2023/02/12 02:35:39;;;;;;;;;;;;;;;;;;1032557;28;20277;-82
2023/02/12 02:36:10;;;;;;;;;;;;;;;;;;1036846;28;19910;-81
2023/02/12 02:36:42;;;;;;;;;;;;;;;;;;1036743;28;19976;-81
2023/02/12 02:37:13;;;;;;;;;;;;;;;;;;1036671;28;19913;-81
2023/02/12 02:37:43;;;;;;;;;;;;;;;;;;1036977;28;19909;-81
2023/02/12 02:38:14;;;;;;;;;;;;;;;;;;1036588;28;19915;-81
2023/02/12 02:38:45;;;;;;;;;;;;;;;;;;1036787;28;19917;-81
2023/02/12 02:39:16;;;;;;;;;;;;;;;;;;1036679;28;20381;-80
2023/02/12 02:39:47;;;;;;;;;;;;;;;;;;1036659;28;19914;-81
2023/02/12 02:40:18;;;;;;;;;;;;;;;;;;1036848;28;19931;-81
2023/02/12 02:40:49;;;;;;;;;;;;;;;;;;1033220;28;19984;-80
2023/02/12 02:41:21;;;;;;;;;;;;;;;;;;1032893;28;19910;-81
2023/02/12 02:41:52;;;;;;;;;;;;;;;;;;1032954;28;19914;-80
2023/02/12 02:42:23;;;;;;;;;;;;;;;;;;1033088;28;19914;-81
2023/02/12 02:42:54;;;;;;;;;;;;;;;;;;1036610;28;19929;-81
2023/02/12 02:43:24;;;;;;;;;;;;;;;;;;1036681;28;19988;-82
2023/02/12 02:43:55;;;;;;;;;;;;;;;;;;1041120;28;19954;-82
2023/02/12 02:44:26;;;;;;;;;;;;;;;;;;1039490;28;19913;-81
2023/02/12 02:44:57;;;;;;;;;;;;;;;;;;1041399;28;19913;-81
2023/02/12 02:45:28;;;;;;;;;;;;;;;;;;1036003;28;20452;-81
2023/02/12 02:45:59;;;;;;;;;;;;;;;;;;1038386;28;19913;-80
2023/02/12 02:46:30;;;;;;;;;;;;;;;;;;1037149;28;19945;-81
2023/02/12 02:47:01;;;;;;;;;;;;;;;;;;1031562;28;20629;-80
2023/02/12 02:47:31;;;;;;;;;;;;;;;;;;1035604;28;19949;-81
2023/02/12 02:48:02;;;;;;;;;;;;;;;;;;1035347;28;19980;-81
2023/02/12 02:48:33;;;;;;;;;;;;;;;;;;1035175;28;19944;-81
2023/02/12 02:49:04;;;;;;;;;;;;;;;;;;1035609;28;19941;-81
2023/02/12 02:49:35;;;;;;;;;;;;;;;;;;1035318;28;19913;-81
2023/02/12 02:50:06;;;;;;;;;;;;;;;;;;1035688;28;19932;-82
2023/02/12 02:50:37;;;;;;;;;;;;;;;;;;1035322;28;19905;-80
2023/02/12 02:51:08;;;;;;;;;;;;;;;;;;1035515;28;19913;-81
2023/02/12 02:51:38;;;;;;;;;;;;;;;;;;1035585;28;19916;-81
2023/02/12 02:52:09;;;;;;;;;;;;;;;;;;1035655;28;20403;-80
2023/02/12 02:52:40;;;;;;;;;;;;;;;;;;1035382;28;20021;-82
2023/02/12 02:53:11;;;;;;;;;;;;;;;;;;1035664;28;19909;-81
2023/02/12 02:53:42;;;;;;;;;;;;;;;;;;1035365;28;19910;-81
2023/02/12 02:54:13;;;;;;;;;;;;;;;;;;1035620;28;19912;-80
2023/02/12 02:54:44;;;;;;;;;;;;;;;;;;1038058;28;19979;-79
2023/02/12 02:55:14;;;;;;;;;;;;;;;;;;1039895;28;20365;-81
2023/02/12 02:55:45;;;;;;;;;;;;;;;;;;1039416;28;19958;-81
2023/02/12 02:56:16;;;;;;;;;;;;;;;;;;1037876;28;20658;-81
2023/02/12 02:56:47;;;;;;;;;;;;;;;;;;1035453;28;19909;-81
2023/02/12 02:57:18;;;;;;;;;;;;;;;;;;1031486;28;19913;-81
2023/02/12 02:57:49;;;;;;;;;;;;;;;;;;1031964;28;19949;-81
2023/02/12 02:58:20;;;;;;;;;;;;;;;;;;1035886;28;20407;-81
2023/02/12 02:58:51;;;;;;;;;;;;;;;;;;1035629;28;19906;-81
2023/02/12 02:59:21;;;;;;;;;;;;;;;;;;1039743;28;19974;-80
2023/02/12 02:59:52;;;;;;;;;;;;;;;;;;1039152;28;19909;-80
2023/02/12 03:00:23;;;;;;;;;;;;;;;;;;1039662;28;20005;-81
2023/02/12 03:00:54;;;;;;;;;;;;;;;;;;1039625;28;19913;-80
2023/02/12 03:01:25;;;;;;;;;;;;;;;;;;1037901;28;19909;-80
2023/02/12 03:01:56;;;;;;;;;;;;;;;;;;1035569;28;20004;-80
2023/02/12 03:02:27;;;;;;;;;;;;;;;;;;1035649;28;19910;-81
2023/02/12 03:03:01;;;;;;;;;;;;;;;;;;1035366;28;19985;-81
2023/02/12 03:03:31;;;;;;;;;;;;;;;;;;1036292;28;19924;-81
2023/02/12 03:04:02;;;;;;;;;;;;;;;;;;1034968;28;19909;-81
2023/02/12 03:04:33;;;;;;;;;;;;;;;;;;1035222;28;20490;-81
2023/02/12 03:05:04;;;;;;;;;;;;;;;;;;1031190;28;19910;-81
2023/02/12 03:05:35;;;;;;;;;;;;;;;;;;1031127;28;20420;-81
2023/02/12 03:06:06;;;;;;;;;;;;;;;;;;1031218;28;19910;-81
2023/02/12 03:06:38;;;;;;;;;;;;;;;;;;1037712;28;19921;-81
2023/02/12 03:07:09;;;;;;;;;;;;;;;;;;1035241;28;19921;-82
2023/02/12 03:07:40;;;;;;;;;;;;;;;;;;1034945;28;19913;-81
2023/02/12 03:08:11;;;;;;;;;;;;;;;;;;1036621;28;19913;-81
2023/02/12 03:08:42;;;;;;;;;;;;;;;;;;1039209;28;19963;-81
2023/02/12 03:09:13;;;;;;;;;;;;;;;;;;1039157;28;20387;-80
2023/02/12 03:09:44;;;;;;;;;;;;;;;;;;1038905;28;19909;-81
2023/02/12 03:10:14;;;;;;;;;;;;;;;;;;1031404;28;19949;-81
2023/02/12 03:10:45;;;;;;;;;;;;;;;;;;1034996;28;19988;-81
2023/02/12 03:11:16;;;;;;;;;;;;;;;;;;1035442;28;19909;-81
2023/02/12 03:11:49;;;;;;;;;;;;;;;;;;1038228;28;19956;-81
2023/02/12 03:12:20;;;;;;;;;;;;;;;;;;1038880;28;19944;-81
2023/02/12 03:12:51;;;;;;;;;;;;;;;;;;1039139;28;19913;-81
2023/02/12 03:13:22;;;;;;;;;;;;;;;;;;1037878;28;19920;-81
2023/02/12 03:13:53;;;;;;;;;;;;;;;;;;1035258;28;19973;-81
2023/02/12 03:14:24;;;;;;;;;;;;;;;;;;1035510;28;20293;-81
2023/02/12 03:14:54;;;;;;;;;;;;;;;;;;1034844;28;20032;-81
2023/02/12 03:15:25;;;;;;;;;;;;;;;;;;1031158;28;19914;-80
2023/02/12 03:15:56;;;;;;;;;;;;;;;;;;1030815;28;20357;-80
2023/02/12 03:16:27;;;;;;;;;;;;;;;;;;1031326;28;19914;-81
2023/02/12 03:16:58;;;;;;;;;;;;;;;;;;1037653;28;19991;-80
2023/02/12 03:17:29;;;;;;;;;;;;;;;;;;1030786;28;19922;-80
2023/02/12 03:18:00;;;;;;;;;;;;;;;;;;1031236;28;19929;-80
2023/02/12 03:18:30;;;;;;;;;;;;;;;;;;1035356;28;20536;-81
2023/02/12 03:19:01;;;;;;;;;;;;;;;;;;1035272;28;20452;-81
2023/02/12 03:19:32;;;;;;;;;;;;;;;;;;1039696;28;19909;-80
2023/02/12 03:20:03;;;;;;;;;;;;;;;;;;1040138;28;19948;-81
2023/02/12 03:20:34;;;;;;;;;;;;;;;;;;1038964;28;20442;-81
2023/02/12 03:21:05;;;;;;;;;;;;;;;;;;1039059;28;19923;-80
2023/02/12 03:21:36;;;;;;;;;;;;;;;;;;1039679;28;19913;-80
2023/02/12 03:22:07;;;;;;;;;;;;;;;;;;1039449;28;20415;-81
2023/02/12 03:22:38;;;;;;;;;;;;;;;;;;1035545;28;19920;-81
2023/02/12 03:23:09;;;;;;;;;;;;;;;;;;1039194;28;19949;-80
2023/02/12 03:23:39;;;;;;;;;;;;;;;;;;1037272;28;19913;-80
2023/02/12 03:24:10;;;;;;;;;;;;;;;;;;1035204;28;20004;-81
2023/02/12 03:24:41;;;;;;;;;;;;;;;;;;1035232;28;19917;-80
2023/02/12 03:25:13;;;;;;;;;;;;;;;;;;1036145;28;20016;-81
2023/02/12 03:25:44;;;;;;;;;;;;;;;;;;1039092;28;20399;-80
2023/02/12 03:26:17;;;;;;;;;;;;;;;;;;1035068;28;20416;-80
2023/02/12 03:26:47;;;;;;;;;;;;;;;;;;1035384;28;19989;-81
2023/02/12 03:27:18;;;;;;;;;;;;;;;;;;1035616;28;19920;-80
2023/02/12 03:27:49;;;;;;;;;;;;;;;;;;1039745;28;19917;-81
2023/02/12 03:28:20;;;;;;;;;;;;;;;;;;1043337;28;20003;-82
2023/02/12 03:28:51;;;;;;;;;;;;;;;;;;1043271;28;19991;-80
2023/02/12 03:29:22;;;;;;;;;;;;;;;;;;1039270;28;19909;-80
2023/02/12 03:29:53;;;;;;;;;;;;;;;;;;1039434;28;19917;-80
2023/02/12 03:30:23;;;;;;;;;;;;;;;;;;1038963;28;20276;-80
2023/02/12 03:30:54;;;;;;;;;;;;;;;;;;1039304;28;20028;-80
2023/02/12 03:31:27;;;;;;;;;;;;;;;;;;1039174;28;19947;-79
2023/02/12 03:31:58;;;;;;;;;;;;;;;;;;1039007;28;19919;-80
2023/02/12 03:32:29;;;;;;;;;;;;;;;;;;1034475;28;19916;-79
2023/02/12 03:33:00;;;;;;;;;;;;;;;;;;1035694;28;19979;-80
2023/02/12 03:33:31;;;;;;;;;;;;;;;;;;1035316;28;19913;-80
2023/02/12 03:34:01;;;;;;;;;;;;;;;;;;1038979;28;20326;-79
2023/02/12 03:34:32;;;;;;;;;;;;;;;;;;1039594;28;19920;-80